GJAAM EGTK-LSGG
Flight info
| Callsign | GJAAM |
|---|---|
| Flight time | N/A |
| Altitude | 12000 |
| Route | KIDLI DCT LON DCT OTSID DCT ESTOC |
| Aircraft | DA62/L-ICAO/C |
Departure
| Time | 2026-04-17 12:13 |
|---|---|
| Airport | London Oxford Airport (EGTK) |
Arrival
| Time | N/A |
|---|---|
| Airport | Geneva International Airport (LSGG) |
| Time | Latitude | Longitude | Altitude | Speed | Heading |
|---|---|---|---|---|---|
| 2026-04-17 12:04 | 51.83294 | -1.31713 | 248 ft | 0 kts | 268° |
| 2026-04-17 12:08 | 51.83304 | -1.31715 | 249 ft | 8 kts | 57° |
| 2026-04-17 12:09 | 51.83384 | -1.31606 | 249 ft | 23 kts | 37° |
| 2026-04-17 12:09 | 51.83505 | -1.31612 | 252 ft | 22 kts | 327° |
| 2026-04-17 12:09 | 51.83640 | -1.31748 | 254 ft | 24 kts | 339° |
| 2026-04-17 12:09 | 51.83821 | -1.31713 | 254 ft | 28 kts | 12° |
| 2026-04-17 12:10 | 51.84015 | -1.31653 | 255 ft | 27 kts | 11° |
| 2026-04-17 12:10 | 51.84206 | -1.31594 | 253 ft | 27 kts | 11° |
| 2026-04-17 12:10 | 51.84311 | -1.31658 | 255 ft | 0 kts | 288° |
| 2026-04-17 12:10 | 51.84313 | -1.31671 | 256 ft | 5 kts | 285° |
| 2026-04-17 12:11 | 51.84306 | -1.31807 | 259 ft | 16 kts | 209° |
| 2026-04-17 12:11 | 51.84233 | -1.31832 | 259 ft | 0 kts | 191° |
| 2026-04-17 12:12 | 51.84212 | -1.31838 | 259 ft | 20 kts | 191° |
| 2026-04-17 12:12 | 51.83888 | -1.31937 | 262 ft | 68 kts | 191° |
| 2026-04-17 12:12 | 51.83357 | -1.32076 | 406 ft | 79 kts | 186° |
| 2026-04-17 12:12 | 51.82805 | -1.32186 | 663 ft | 80 kts | 198° |
| 2026-04-17 12:13 | 51.82291 | -1.32518 | 936 ft | 81 kts | 201° |
| 2026-04-17 12:13 | 51.81774 | -1.32867 | 1208 ft | 81 kts | 202° |
| 2026-04-17 12:13 | 51.81259 | -1.33220 | 1482 ft | 81 kts | 204° |
| 2026-04-17 12:13 | 51.80730 | -1.33583 | 1740 ft | 84 kts | 204° |
| 2026-04-17 12:14 | 51.80192 | -1.33960 | 1994 ft | 85 kts | 205° |
| 2026-04-17 12:14 | 51.79646 | -1.34345 | 2238 ft | 87 kts | 205° |
| 2026-04-17 12:14 | 51.79083 | -1.34742 | 2519 ft | 88 kts | 206° |
| 2026-04-17 12:14 | 51.78524 | -1.35139 | 2822 ft | 89 kts | 206° |
| 2026-04-17 12:15 | 51.77956 | -1.35543 | 3122 ft | 90 kts | 206° |
| 2026-04-17 12:15 | 51.77323 | -1.35509 | 3422 ft | 101 kts | 161° |
| 2026-04-17 12:15 | 51.76833 | -1.34618 | 3721 ft | 112 kts | 133° |
| 2026-04-17 12:15 | 51.76440 | -1.33533 | 4004 ft | 114 kts | 130° |
| 2026-04-17 12:16 | 51.76055 | -1.32401 | 4281 ft | 116 kts | 129° |
| 2026-04-17 12:16 | 51.75675 | -1.31259 | 4545 ft | 117 kts | 129° |
| 2026-04-17 12:16 | 51.75299 | -1.30106 | 4792 ft | 118 kts | 128° |
| 2026-04-17 12:16 | 51.74918 | -1.28927 | 5049 ft | 119 kts | 127° |
| 2026-04-17 12:17 | 51.74534 | -1.27731 | 5319 ft | 120 kts | 127° |
| 2026-04-17 12:17 | 51.74152 | -1.26532 | 5571 ft | 121 kts | 127° |
| 2026-04-17 12:17 | 51.73772 | -1.25327 | 5839 ft | 122 kts | 127° |
| 2026-04-17 12:17 | 51.73385 | -1.24099 | 6087 ft | 123 kts | 127° |
| 2026-04-17 12:18 | 51.72992 | -1.22860 | 6338 ft | 124 kts | 126° |
| 2026-04-17 12:18 | 51.72604 | -1.21625 | 6588 ft | 124 kts | 126° |
| 2026-04-17 12:18 | 51.72214 | -1.20379 | 6837 ft | 125 kts | 126° |
| 2026-04-17 12:18 | 51.71817 | -1.19120 | 7088 ft | 125 kts | 126° |
| 2026-04-17 12:19 | 51.71426 | -1.17870 | 7331 ft | 126 kts | 126° |
| 2026-04-17 12:19 | 51.71029 | -1.16605 | 7582 ft | 126 kts | 127° |
| 2026-04-17 12:19 | 51.70628 | -1.15329 | 7810 ft | 129 kts | 126° |
| 2026-04-17 12:19 | 51.70211 | -1.14015 | 8040 ft | 131 kts | 126° |
| 2026-04-17 12:20 | 51.69796 | -1.12698 | 8266 ft | 132 kts | 126° |
| 2026-04-17 12:20 | 51.69370 | -1.11358 | 8494 ft | 134 kts | 124° |
| 2026-04-17 12:20 | 51.68946 | -1.10011 | 8724 ft | 135 kts | 124° |
| 2026-04-17 12:20 | 51.68520 | -1.08659 | 8950 ft | 137 kts | 124° |
| 2026-04-17 12:21 | 51.68089 | -1.07294 | 9176 ft | 137 kts | 123° |
| 2026-04-17 12:21 | 51.67657 | -1.05919 | 9400 ft | 138 kts | 123° |
| 2026-04-17 12:21 | 51.67222 | -1.04532 | 9623 ft | 138 kts | 124° |
| 2026-04-17 12:21 | 51.66785 | -1.03153 | 9847 ft | 139 kts | 123° |
| 2026-04-17 12:22 | 51.66347 | -1.01760 | 10074 ft | 139 kts | 123° |
| 2026-04-17 12:22 | 51.65905 | -1.00361 | 10306 ft | 140 kts | 124° |
| 2026-04-17 12:22 | 51.65465 | -0.98967 | 10531 ft | 140 kts | 124° |
| 2026-04-17 12:22 | 51.65026 | -0.97576 | 10755 ft | 140 kts | 125° |
| 2026-04-17 12:23 | 51.64585 | -0.96182 | 10978 ft | 140 kts | 126° |
| 2026-04-17 12:23 | 51.64138 | -0.94774 | 11206 ft | 140 kts | 126° |
| 2026-04-17 12:23 | 51.63698 | -0.93388 | 11431 ft | 140 kts | 125° |
| 2026-04-17 12:23 | 51.63258 | -0.92000 | 11658 ft | 140 kts | 126° |
| 2026-04-17 12:24 | 51.62811 | -0.90593 | 11885 ft | 140 kts | 126° |
| 2026-04-17 12:24 | 51.62357 | -0.89171 | 12009 ft | 148 kts | 126° |
| 2026-04-17 12:24 | 51.61867 | -0.87650 | 12032 ft | 160 kts | 125° |
| 2026-04-17 12:24 | 51.61342 | -0.86014 | 12037 ft | 169 kts | 124° |
| 2026-04-17 12:25 | 51.60797 | -0.84302 | 12037 ft | 174 kts | 124° |
| 2026-04-17 12:25 | 51.60245 | -0.82557 | 12043 ft | 178 kts | 124° |
| 2026-04-17 12:25 | 51.59671 | -0.80759 | 12044 ft | 180 kts | 123° |
| 2026-04-17 12:25 | 51.59101 | -0.78966 | 12037 ft | 182 kts | 123° |
| 2026-04-17 12:26 | 51.58526 | -0.77158 | 12044 ft | 182 kts | 123° |
| 2026-04-17 12:26 | 51.57941 | -0.75327 | 12049 ft | 183 kts | 124° |
| 2026-04-17 12:26 | 51.57357 | -0.73501 | 12047 ft | 183 kts | 123° |
| 2026-04-17 12:26 | 51.56770 | -0.71664 | 12047 ft | 184 kts | 123° |
| 2026-04-17 12:27 | 51.56182 | -0.69828 | 12049 ft | 184 kts | 123° |
| 2026-04-17 12:27 | 51.55605 | -0.68022 | 12048 ft | 184 kts | 123° |
| 2026-04-17 12:27 | 51.55019 | -0.66194 | 12053 ft | 184 kts | 123° |
| 2026-04-17 12:27 | 51.54431 | -0.64365 | 12054 ft | 184 kts | 123° |
| 2026-04-17 12:28 | 51.53841 | -0.62530 | 12053 ft | 184 kts | 123° |
| 2026-04-17 12:28 | 51.53255 | -0.60704 | 12054 ft | 184 kts | 123° |
| 2026-04-17 12:28 | 51.52668 | -0.58877 | 12052 ft | 184 kts | 123° |
| 2026-04-17 12:28 | 51.52082 | -0.57059 | 12057 ft | 184 kts | 123° |
| 2026-04-17 12:29 | 51.51505 | -0.55268 | 12057 ft | 184 kts | 123° |
| 2026-04-17 12:29 | 51.50924 | -0.53459 | 12058 ft | 184 kts | 123° |
| 2026-04-17 12:29 | 51.50340 | -0.51649 | 12057 ft | 184 kts | 123° |
| 2026-04-17 12:29 | 51.49751 | -0.49829 | 12060 ft | 184 kts | 123° |
| 2026-04-17 12:30 | 51.49172 | -0.48034 | 12056 ft | 184 kts | 123° |
| 2026-04-17 12:30 | 51.48400 | -0.46566 | 12056 ft | 171 kts | 155° |
| 2026-04-17 12:30 | 51.47352 | -0.45662 | 12058 ft | 170 kts | 160° |
| 2026-04-17 12:30 | 51.46301 | -0.44847 | 12059 ft | 169 kts | 161° |
| 2026-04-17 12:31 | 51.45239 | -0.44036 | 12060 ft | 169 kts | 161° |
| 2026-04-17 12:31 | 51.44201 | -0.43246 | 12087 ft | 168 kts | 161° |
| 2026-04-17 12:31 | 51.43173 | -0.42463 | 12157 ft | 165 kts | 161° |
| 2026-04-17 12:31 | 51.42180 | -0.41716 | 12170 ft | 166 kts | 162° |
| 2026-04-17 12:32 | 51.41204 | -0.40980 | 12171 ft | 167 kts | 161° |
| 2026-04-17 12:32 | 51.39283 | -0.39537 | 12173 ft | 168 kts | 161° |
| 2026-04-17 12:32 | 51.38216 | -0.38732 | 12176 ft | 169 kts | 161° |
| 2026-04-17 12:33 | 51.37141 | -0.37926 | 12178 ft | 169 kts | 161° |
| 2026-04-17 12:33 | 51.36072 | -0.37121 | 12180 ft | 170 kts | 161° |
| 2026-04-17 12:33 | 51.35030 | -0.36386 | 12169 ft | 156 kts | 165° |
| 2026-04-17 12:33 | 51.34095 | -0.35598 | 11720 ft | 172 kts | 149° |
| 2026-04-17 12:34 | 51.33192 | -0.34335 | 11509 ft | 153 kts | 154° |
| 2026-04-17 12:34 | 51.32291 | -0.34021 | 11068 ft | 147 kts | 209° |
| 2026-04-17 12:34 | 51.32010 | -0.35524 | 10113 ft | 173 kts | 282° |
| 2026-04-17 12:34 | 51.31540 | -0.37184 | 8950 ft | 190 kts | 216° |
| 2026-04-17 12:35 | 51.30420 | -0.37256 | 9160 ft | 147 kts | 172° |
| 2026-04-17 12:35 | 51.29533 | -0.36369 | 8861 ft | 148 kts | 147° |
| 2026-04-17 12:35 | 51.28872 | -0.35152 | 8684 ft | 143 kts | 127° |
| 2026-04-17 12:35 | 51.28413 | -0.33749 | 8418 ft | 142 kts | 121° |
| 2026-04-17 12:37 | 51.25341 | -0.23378 | 5811 ft | 157 kts | 121° |
| 2026-04-17 12:37 | 51.24991 | -0.21703 | 5375 ft | 159 kts | 111° |
| 2026-04-17 12:38 | 51.24691 | -0.20046 | 4953 ft | 158 kts | 111° |
| 2026-04-17 12:38 | 51.24392 | -0.18350 | 4517 ft | 158 kts | 111° |
| 2026-04-17 12:38 | 51.24098 | -0.16695 | 4051 ft | 160 kts | 111° |
| 2026-04-17 12:38 | 51.23792 | -0.14979 | 3523 ft | 162 kts | 112° |
| 2026-04-17 12:39 | 51.23169 | -0.13609 | 2994 ft | 152 kts | 149° |
| 2026-04-17 12:39 | 51.22393 | -0.12452 | 2460 ft | 155 kts | 138° |
| 2026-04-17 12:39 | 51.21671 | -0.11216 | 1933 ft | 154 kts | 138° |
| 2026-04-17 12:39 | 51.20967 | -0.09977 | 1563 ft | 142 kts | 138° |
| 2026-04-17 12:40 | 51.20351 | -0.08908 | 1505 ft | 125 kts | 144° |
| 2026-04-17 12:40 | 51.19643 | -0.08219 | 1498 ft | 114 kts | 161° |
| 2026-04-17 12:40 | 51.18948 | -0.07684 | 1498 ft | 111 kts | 163° |
| 2026-04-17 12:40 | 51.18238 | -0.07550 | 1513 ft | 100 kts | 197° |
| 2026-04-17 12:41 | 51.17565 | -0.07799 | 1506 ft | 100 kts | 198° |
| 2026-04-17 12:41 | 51.16907 | -0.08054 | 1480 ft | 99 kts | 202° |
| 2026-04-17 12:41 | 51.16407 | -0.08802 | 1278 ft | 103 kts | 241° |
| 2026-04-17 12:41 | 51.16193 | -0.09892 | 1104 ft | 103 kts | 257° |
| 2026-04-17 12:42 | 51.16025 | -0.10992 | 957 ft | 99 kts | 253° |
| 2026-04-17 12:42 | 51.15892 | -0.11916 | 907 ft | 79 kts | 253° |
| 2026-04-17 12:42 | 51.15742 | -0.12731 | 814 ft | 73 kts | 239° |
| 2026-04-17 12:42 | 51.15566 | -0.13441 | 744 ft | 69 kts | 257° |
| 2026-04-17 12:43 | 51.15485 | -0.14184 | 646 ft | 70 kts | 253° |
| 2026-04-17 12:43 | 51.15398 | -0.14949 | 541 ft | 68 kts | 252° |
| 2026-04-17 12:43 | 51.15278 | -0.15688 | 422 ft | 69 kts | 250° |
| 2026-04-17 12:43 | 51.15177 | -0.16437 | 332 ft | 71 kts | 251° |
| 2026-04-17 12:44 | 51.15065 | -0.17196 | 212 ft | 70 kts | 252° |
| 2026-04-17 12:44 | 51.14967 | -0.17844 | 191 ft | 35 kts | 244° |
| 2026-04-17 12:44 | 51.14975 | -0.17825 | 191 ft | 19 kts | 101° |
| 2026-04-17 12:44 | 51.14908 | -0.17696 | 191 ft | 18 kts | 164° |
| 2026-04-17 12:45 | 51.14800 | -0.17552 | 192 ft | 25 kts | 84° |
| 2026-04-17 12:45 | 51.14724 | -0.17416 | 195 ft | 6 kts | 128° |